WetterOnline ( https://www.wetteronline.de )

Wetter aktuell Stockheim

Aktuelles Wetter: Coburg (323m)

6-stündlich | Neueste Meldungen
Ortszeit Temperatur Wetter
Di, 29.09. 14:00 15.1° C leicht bewölkt
Di, 29.09. 8:00 4.2° C wolkenlos
Di, 29.09. 2:00 7.6° C leicht bewölkt
Mo, 28.09. 20:00 11.3° C bedeckt
Mo, 28.09. 14:00 15.1° C wolkenlos
Mo, 28.09. 8:00 3.6° C wolkenlos
Mo, 28.09. 2:00 6.5° C bedeckt
So, 27.09. 20:00 8.8° C bedeckt
Ortszeit Temperatur Wetter
Di, 29.09. 19:30 12.9° C bedeckt
Di, 29.09. 19:20 12.9° C bedeckt
Di, 29.09. 19:10 13.0° C bedeckt
Di, 29.09. 19:00 13.2° C bewölkt
Di, 29.09. 18:50 13.2° C bewölkt
Di, 29.09. 18:40 13.2° C bewölkt
Di, 29.09. 18:30 13.7° C bedeckt
Di, 29.09. 18:00 14.3° C bedeckt
Ortszeit Relative Feuchte Sichtweite
Di, 29.09. 14:00 60% 45 km
Di, 29.09. 8:00 94% 30 km
Di, 29.09. 2:00 91% 65 km
Mo, 28.09. 20:00 78% >70 km
Mo, 28.09. 14:00 47% 45 km
Mo, 28.09. 8:00 94% 35 km
Mo, 28.09. 2:00 95% 50 km
So, 27.09. 20:00 90% >70 km
Ortszeit Relative Feuchte Sichtweite
Di, 29.09. 19:30 80% 60 km
Di, 29.09. 19:20 80% -
Di, 29.09. 19:10 79% -
Di, 29.09. 19:00 78% >70 km
Di, 29.09. 18:50 78% -
Di, 29.09. 18:40 78% -
Di, 29.09. 18:30 76% 65 km
Di, 29.09. 18:00 73% >70 km
Ortszeit Niederschlagsmenge Niederschlagsart
Di, 29.09. 14:00 0.0 l/m2 in 6 Std. -
Di, 29.09. 8:00 0.0 l/m2 in 12 Std. -
Di, 29.09. 2:00 0.0 l/m2 in 6 Std. -
Mo, 28.09. 20:00 0.0 l/m2 in 12 Std. -
Mo, 28.09. 14:00 0.0 l/m2 in 6 Std. -
Mo, 28.09. 8:00 0.0 l/m2 in 12 Std. -
Mo, 28.09. 2:00 0.0 l/m2 in 6 Std. -
So, 27.09. 20:00 0.1 l/m2 in 12 Std. -
Ortszeit Niederschlagsmenge Niederschlagsart
Di, 29.09. 19:30 0.0 l/m2 in 1 Std. -
Di, 29.09. 19:20 keine Meldung -
Di, 29.09. 19:10 keine Meldung -
Di, 29.09. 19:00 0.0 l/m2 in 1 Std. -
Di, 29.09. 18:50 keine Meldung -
Di, 29.09. 18:40 keine Meldung -
Di, 29.09. 18:30 0.0 l/m2 in 1 Std. -
Di, 29.09. 18:00 0.0 l/m2 in 1 Std. -
Ortszeit Stärke Spitze Richtung
km/h Bft. km/h Grad Sektor
Di, 29.09. 14:00 11 2 22 210° SW
Di, 29.09. 8:00 4 1 18 360° N
Di, 29.09. 2:00 7 2 14 40° NO
Mo, 28.09. 20:00 6 1 15 10° N
Mo, 28.09. 14:00 7 2 18 270° W
Mo, 28.09. 8:00 4 1 18 300° NW
Mo, 28.09. 2:00 9 2 15 50° NO
So, 27.09. 20:00 11 2 25 40° NO
Ortszeit Stärke Spitze Richtung
km/h Bft. km/h Grad Sektor
Di, 29.09. 19:30 11 2 17 260° W
Di, 29.09. 19:20 11 2 - 260° W
Di, 29.09. 19:10 11 2 - 260° W
Di, 29.09. 19:00 13 3 19 250° W
Di, 29.09. 18:50 13 3 - 250° W
Di, 29.09. 18:40 15 3 - 260° W
Di, 29.09. 18:30 15 3 19 250° W
Di, 29.09. 18:00 13 3 19 250° W
Ortszeit Untergrenze Bedeckung Gattung
total tief tief mittel hoch
Di, 29.09. 14:00 840 m 3/8 3/8 - - -
Di, 29.09. 8:00 - 0/8 0/8 - - -
Di, 29.09. 2:00 3600 m 2/8 2/8 - - -
Mo, 28.09. 20:00 3900 m 8/8 8/8 - - -
Mo, 28.09. 14:00 6000 m 0/8 0/8 - - -
Mo, 28.09. 8:00 - 0/8 0/8 - - -
Mo, 28.09. 2:00 6900 m 8/8 8/8 - - -
So, 27.09. 20:00 1500 m 8/8 8/8 - - -
Ortszeit Bedeckungsgrad in Achtel und Wolkenuntergrenze
Di, 29.09. 19:30 8(1230m)
Di, 29.09. 19:20 8(1230m)
Di, 29.09. 19:10 1(720m) 8(1260m)
Di, 29.09. 19:00 1(690m) 7(1290m)
Di, 29.09. 18:50 1(690m) 7(1290m)
Di, 29.09. 18:40 1(630m) 7(1320m)
Di, 29.09. 18:30 2(660m) 8(1350m)
Di, 29.09. 18:00 4(750m) 8(1410m)
Ortszeit Luftdruck NN (hPa) Tendenz (hPa in 3 Std.)
Di, 29.09. 14:00 1017 0,0
Di, 29.09. 8:00 1018 + 1,3
Di, 29.09. 2:00 1016 + 0,7
Mo, 28.09. 20:00 1013 + 1,4
Mo, 28.09. 14:00 1011 0,0
Mo, 28.09. 8:00 1012 + 0,6
Mo, 28.09. 2:00 1010 - 0,5
So, 27.09. 20:00 1008 + 1,2
Ortszeit Luftdruck NN (hPa) Tendenz (hPa in 3 Std.)
Di, 29.09. 19:30 1018 + 1,0
Di, 29.09. 19:20 1018 keine Meldung
Di, 29.09. 19:10 1018 keine Meldung
Di, 29.09. 19:00 1018 + 0,8
Di, 29.09. 18:50 1018 keine Meldung
Di, 29.09. 18:40 1018 keine Meldung
Di, 29.09. 18:30 1018 + 0,8
Di, 29.09. 18:00 1017 + 0,5
Ortszeit Schneehöhe (cm)
Di, 29.09. 14:00 -
Di, 29.09. 8:00 -
Di, 29.09. 2:00 -
Mo, 28.09. 20:00 -
Mo, 28.09. 14:00 -
Mo, 28.09. 8:00 -
Mo, 28.09. 2:00 -
So, 27.09. 20:00 -
Ortszeit Schneehöhe (cm)
Di, 29.09. 19:30 -
Di, 29.09. 19:20 -
Di, 29.09. 19:10 -
Di, 29.09. 19:00 -
Di, 29.09. 18:50 -
Di, 29.09. 18:40 -
Di, 29.09. 18:30 -
Di, 29.09. 18:00 -
Link zu dieser Seite / Seite empfehlen

Das Wetter in ...